createdAt,value
2017-09-22T00:00:08.146Z,0
2017-09-22T00:01:16.989Z,0
2017-09-22T00:02:25.833Z,0
2017-09-22T00:03:34.774Z,0
2017-09-22T00:04:43.619Z,0
2017-09-22T00:05:52.458Z,0
2017-09-22T00:07:01.402Z,0
2017-09-22T00:08:10.244Z,0
2017-09-22T00:09:19.286Z,0
2017-09-22T00:10:28.127Z,0
2017-09-22T00:11:36.967Z,0
2017-09-22T00:12:45.810Z,0
2017-09-22T00:13:54.650Z,0
2017-09-22T00:15:03.689Z,0
2017-09-22T00:16:12.533Z,0
2017-09-22T00:17:21.374Z,0
2017-09-22T00:18:30.219Z,0
2017-09-22T00:19:39.059Z,0
2017-09-22T00:20:48.101Z,0
2017-09-22T00:21:56.943Z,0
2017-09-22T00:23:05.792Z,0
2017-09-22T00:24:14.634Z,0
2017-09-22T00:25:23.477Z,0
2017-09-22T00:26:32.469Z,0
2017-09-22T00:27:41.644Z,0
2017-09-22T00:28:50.488Z,0
2017-09-22T00:29:59.331Z,0
2017-09-22T00:31:08.505Z,0
2017-09-22T00:32:18.193Z,0
2017-09-22T00:33:27.033Z,0
2017-09-22T00:34:35.879Z,0
2017-09-22T00:35:44.721Z,0
2017-09-22T00:36:53.562Z,0
2017-09-22T00:38:02.452Z,0
2017-09-22T00:39:11.295Z,0
2017-09-22T00:40:20.137Z,0
2017-09-22T00:41:28.978Z,0
2017-09-22T00:42:37.821Z,0
2017-09-22T00:43:46.815Z,0
2017-09-22T00:44:55.658Z,0
2017-09-22T00:46:04.500Z,0
2017-09-22T00:47:13.338Z,0
2017-09-22T00:48:22.180Z,0
2017-09-22T00:49:31.170Z,0
2017-09-22T00:50:40.012Z,0
2017-09-22T00:51:49.186Z,0
2017-09-22T00:52:58.028Z,0
2017-09-22T00:54:06.868Z,0
2017-09-22T00:55:15.707Z,0
2017-09-22T00:56:24.548Z,0
2017-09-22T00:57:33.390Z,0
2017-09-22T00:58:42.559Z,0
2017-09-22T00:59:51.399Z,0
2017-09-22T01:01:00.541Z,0
2017-09-22T01:02:09.380Z,0
2017-09-22T01:03:18.224Z,0
2017-09-22T01:04:27.407Z,0
2017-09-22T01:05:36.250Z,0
2017-09-22T01:06:45.394Z,0
2017-09-22T01:07:54.231Z,0
2017-09-22T01:09:03.072Z,0
2017-09-22T01:10:11.912Z,0
2017-09-22T01:11:20.754Z,0
2017-09-22T01:12:29.596Z,0
2017-09-22T01:13:38.438Z,0
2017-09-22T01:14:47.277Z,0
2017-09-22T01:15:56.117Z,0
2017-09-22T01:17:04.956Z,0
2017-09-22T01:18:14.201Z,0
2017-09-22T01:19:23.040Z,0
2017-09-22T01:20:32.215Z,0
2017-09-22T01:21:41.055Z,0
2017-09-22T01:22:49.895Z,0
2017-09-22T01:23:58.834Z,0
2017-09-22T01:25:07.674Z,0
2017-09-22T01:26:16.514Z,0
2017-09-22T01:27:25.357Z,0
2017-09-22T01:28:34.530Z,0
2017-09-22T01:29:43.421Z,0
2017-09-22T01:30:52.269Z,0
2017-09-22T01:32:01.441Z,0
2017-09-22T01:33:10.611Z,0
2017-09-22T01:34:19.451Z,0
2017-09-22T01:35:28.393Z,0
2017-09-22T01:36:37.235Z,0
2017-09-22T01:37:46.076Z,0
2017-09-22T01:38:54.917Z,0
2017-09-22T01:40:03.760Z,0
2017-09-22T01:41:12.904Z,0
2017-09-22T01:42:21.740Z,0
2017-09-22T01:43:30.612Z,0
2017-09-22T01:44:39.423Z,0
2017-09-22T01:45:48.261Z,0
2017-09-22T01:46:57.251Z,0
2017-09-22T01:48:06.093Z,0
2017-09-22T01:49:14.931Z,0
2017-09-22T01:50:23.772Z,0
2017-09-22T01:51:32.946Z,0
2017-09-22T01:52:42.038Z,0
2017-09-22T01:53:50.881Z,0
2017-09-22T01:54:59.721Z,0
2017-09-22T01:56:08.564Z,0
2017-09-22T01:57:17.405Z,0
2017-09-22T01:58:26.397Z,0
2017-09-22T01:59:35.237Z,0
2017-09-22T02:00:44.075Z,0
2017-09-22T02:01:52.922Z,0
2017-09-22T02:03:02.096Z,0
2017-09-22T02:04:11.239Z,0
2017-09-22T02:05:20.075Z,0
2017-09-22T02:06:28.916Z,0
2017-09-22T02:07:37.758Z,0
2017-09-22T02:08:46.599Z,0
2017-09-22T02:09:55.824Z,0
2017-09-22T02:11:04.668Z,0
2017-09-22T02:12:13.509Z,0
2017-09-22T02:13:22.350Z,0
2017-09-22T02:14:31.194Z,0
2017-09-22T02:15:40.336Z,0
2017-09-22T02:16:49.180Z,0
2017-09-22T02:17:58.025Z,0
2017-09-22T02:19:06.864Z,0
2017-09-22T02:20:15.708Z,0
2017-09-22T02:21:24.545Z,0
2017-09-22T02:22:33.387Z,0
2017-09-22T02:23:42.233Z,0
2017-09-22T02:24:51.075Z,0
2017-09-22T02:25:59.917Z,0
2017-09-22T02:27:09.016Z,0
2017-09-22T02:28:18.186Z,0
2017-09-22T02:29:27.028Z,0
2017-09-22T02:30:35.872Z,0
2017-09-22T02:31:44.714Z,0
2017-09-22T02:32:53.556Z,0
2017-09-22T02:34:02.398Z,0
2017-09-22T02:35:11.581Z,0
2017-09-22T02:36:20.422Z,0
2017-09-22T02:37:29.271Z,0
2017-09-22T02:38:38.308Z,0
2017-09-22T02:39:47.151Z,0
2017-09-22T02:40:55.993Z,0
2017-09-22T02:42:04.837Z,0
2017-09-22T02:43:13.682Z,0
2017-09-22T02:44:23.008Z,0
2017-09-22T02:45:31.848Z,0
2017-09-22T02:46:40.691Z,0
2017-09-22T02:47:49.531Z,0
2017-09-22T02:48:58.372Z,0
2017-09-22T02:50:07.414Z,0
2017-09-22T02:51:16.256Z,0
2017-09-22T02:52:25.097Z,0
2017-09-22T02:53:33.937Z,0
2017-09-22T02:54:42.780Z,0
2017-09-22T02:55:51.923Z,0
2017-09-22T02:57:00.766Z,0
2017-09-22T02:58:09.607Z,0
2017-09-22T02:59:18.450Z,0
2017-09-22T03:00:27.294Z,0
2017-09-22T03:01:36.767Z,0
2017-09-22T03:02:45.606Z,0
2017-09-22T03:03:54.448Z,0
2017-09-22T03:05:03.287Z,0
2017-09-22T03:06:12.128Z,0
2017-09-22T03:07:21.017Z,0
2017-09-22T03:08:29.859Z,0
2017-09-22T03:09:38.699Z,0
2017-09-22T03:10:47.542Z,0
2017-09-22T03:11:56.384Z,0
2017-09-22T03:13:05.376Z,0
2017-09-22T03:14:14.216Z,0
2017-09-22T03:15:23.058Z,0
2017-09-22T03:16:31.898Z,0
2017-09-22T03:17:40.739Z,0
2017-09-22T03:18:49.628Z,0
2017-09-22T03:19:58.466Z,0
2017-09-22T03:21:07.307Z,0
2017-09-22T03:22:16.146Z,0
2017-09-22T03:23:24.988Z,0
2017-09-22T03:24:33.882Z,0
2017-09-22T03:25:42.723Z,0
2017-09-22T03:26:51.565Z,0
2017-09-22T03:28:00.436Z,0
2017-09-22T03:29:09.247Z,0
2017-09-22T03:30:18.388Z,0
2017-09-22T03:31:27.229Z,0
2017-09-22T03:32:36.070Z,0
2017-09-22T03:33:44.912Z,0
2017-09-22T03:34:53.751Z,0
2017-09-22T03:36:02.996Z,0
2017-09-22T03:37:11.837Z,0
2017-09-22T03:38:20.676Z,0
2017-09-22T03:39:29.517Z,0
2017-09-22T03:40:38.360Z,0
2017-09-22T03:41:47.351Z,0
2017-09-22T03:42:56.194Z,0
2017-09-22T03:44:05.037Z,0
2017-09-22T03:45:13.881Z,0
2017-09-22T03:46:22.722Z,0
2017-09-22T03:47:31.663Z,0
2017-09-22T03:48:40.506Z,0
2017-09-22T03:49:49.688Z,0
2017-09-22T03:50:58.528Z,0
2017-09-22T03:52:07.372Z,0
2017-09-22T03:53:16.365Z,0
2017-09-22T03:54:25.207Z,0
2017-09-22T03:55:34.056Z,0
2017-09-22T03:56:42.884Z,0
2017-09-22T03:57:51.726Z,0
2017-09-22T03:59:00.820Z,0
2017-09-22T04:00:09.658Z,0
2017-09-22T04:01:18.497Z,0
2017-09-22T04:02:27.339Z,0
2017-09-22T04:03:36.181Z,0
2017-09-22T04:04:45.172Z,0
2017-09-22T04:05:54.011Z,0
2017-09-22T04:07:02.850Z,0
2017-09-22T04:08:11.692Z,0
2017-09-22T04:09:20.864Z,0
2017-09-22T04:10:30.005Z,0
2017-09-22T04:11:38.847Z,0
2017-09-22T04:12:48.027Z,0
2017-09-22T04:13:56.870Z,0
2017-09-22T04:15:06.037Z,0
2017-09-22T04:16:15.029Z,0
2017-09-22T04:17:23.869Z,0
2017-09-22T04:18:32.708Z,0
2017-09-22T04:19:41.550Z,0
2017-09-22T04:20:50.723Z,0
2017-09-22T04:21:59.615Z,0
2017-09-22T04:23:08.459Z,0
2017-09-22T04:24:17.634Z,0
2017-09-22T04:25:26.472Z,0
2017-09-22T04:26:35.314Z,0
2017-09-22T04:27:44.407Z,0
2017-09-22T04:28:53.583Z,0
2017-09-22T04:30:02.424Z,0
2017-09-22T04:31:11.266Z,0
2017-09-22T04:32:20.105Z,0
2017-09-22T04:33:29.096Z,0
2017-09-22T04:34:37.943Z,0
2017-09-22T04:35:46.777Z,0
2017-09-22T04:36:55.620Z,0
2017-09-22T04:38:04.461Z,0
2017-09-22T04:39:13.402Z,0
2017-09-22T04:40:22.243Z,0
2017-09-22T04:41:31.085Z,0
2017-09-22T04:42:39.927Z,0
2017-09-22T04:43:48.765Z,0
2017-09-22T04:44:57.706Z,0
2017-09-22T04:46:06.546Z,0
2017-09-22T04:47:15.386Z,0
2017-09-22T04:48:24.227Z,0
2017-09-22T04:49:33.063Z,0
2017-09-22T04:50:42.052Z,0
2017-09-22T04:51:50.893Z,0
2017-09-22T04:52:59.733Z,0
2017-09-22T04:54:08.573Z,0
2017-09-22T04:55:17.417Z,0
2017-09-22T04:56:26.359Z,0
2017-09-22T04:57:35.200Z,0
2017-09-22T04:58:44.040Z,0
2017-09-22T04:59:52.883Z,0
2017-09-22T05:01:01.724Z,0
2017-09-22T05:02:10.720Z,0
2017-09-22T05:03:19.580Z,0
2017-09-22T05:04:28.407Z,0
2017-09-22T05:05:37.248Z,5
2017-09-22T05:06:46.431Z,5
2017-09-22T05:07:55.276Z,5
2017-09-22T05:09:04.119Z,5
2017-09-22T05:10:12.964Z,5
2017-09-22T05:11:21.806Z,5
2017-09-22T05:12:30.650Z,5
2017-09-22T05:13:39.597Z,10
2017-09-22T05:14:48.434Z,10
2017-09-22T05:15:57.280Z,10
2017-09-22T05:17:06.124Z,10
2017-09-22T05:18:14.966Z,15
2017-09-22T05:19:24.012Z,15
2017-09-22T05:20:32.856Z,15
2017-09-22T05:21:41.704Z,15
2017-09-22T05:22:50.549Z,15
2017-09-22T05:23:59.413Z,20
2017-09-22T05:25:08.236Z,20
2017-09-22T05:26:17.077Z,20
2017-09-22T05:27:25.920Z,20
2017-09-22T05:28:34.792Z,25
2017-09-22T05:29:43.604Z,25
2017-09-22T05:30:52.698Z,25
2017-09-22T05:32:01.544Z,25
2017-09-22T05:33:10.385Z,30
2017-09-22T05:34:19.559Z,30
2017-09-22T05:35:28.400Z,30
2017-09-22T05:36:37.393Z,30
2017-09-22T05:37:46.239Z,35
2017-09-22T05:38:55.082Z,35
2017-09-22T05:40:03.927Z,35
2017-09-22T05:41:12.769Z,35
2017-09-22T05:42:21.913Z,40
2017-09-22T05:43:30.757Z,40
2017-09-22T05:44:39.599Z,40
2017-09-22T05:45:48.441Z,45
2017-09-22T05:46:57.285Z,45
2017-09-22T05:48:06.428Z,45
2017-09-22T05:49:15.274Z,45
2017-09-22T05:50:24.116Z,50
2017-09-22T05:51:32.962Z,50
2017-09-22T05:52:41.806Z,50
2017-09-22T05:53:50.651Z,50
2017-09-22T05:54:59.493Z,55
2017-09-22T05:56:08.670Z,55
2017-09-22T05:57:17.515Z,55
2017-09-22T05:58:26.358Z,55
2017-09-22T05:59:35.353Z,55
2017-09-22T06:00:44.528Z,60
2017-09-22T06:01:53.374Z,60
2017-09-22T06:03:02.220Z,60
2017-09-22T06:04:11.061Z,65
2017-09-22T06:05:20.006Z,65
2017-09-22T06:06:29.180Z,70
2017-09-22T06:07:38.020Z,70
2017-09-22T06:08:46.863Z,75
2017-09-22T06:09:55.704Z,75
2017-09-22T06:11:04.800Z,75
2017-09-22T06:12:13.642Z,75
2017-09-22T06:13:22.491Z,75
2017-09-22T06:14:31.334Z,80
2017-09-22T06:15:40.513Z,80
2017-09-22T06:16:49.504Z,80
2017-09-22T06:17:58.345Z,85
2017-09-22T06:19:07.187Z,85
2017-09-22T06:20:16.028Z,85
2017-09-22T06:21:24.870Z,85
2017-09-22T06:22:33.764Z,90
2017-09-22T06:23:42.607Z,90
2017-09-22T06:24:51.779Z,90
2017-09-22T06:26:00.622Z,90
2017-09-22T06:27:09.465Z,95
2017-09-22T06:28:18.358Z,95
2017-09-22T06:29:27.198Z,100
2017-09-22T06:30:36.040Z,100
2017-09-22T06:31:44.882Z,100
2017-09-22T06:32:53.725Z,105
2017-09-22T06:34:02.567Z,105
2017-09-22T06:35:11.413Z,105
2017-09-22T06:36:20.587Z,105
2017-09-22T06:37:29.427Z,105
2017-09-22T06:38:38.269Z,110
2017-09-22T06:39:47.268Z,105
2017-09-22T06:40:56.438Z,110
2017-09-22T06:42:05.281Z,110
2017-09-22T06:43:14.456Z,110
2017-09-22T06:44:23.300Z,110
2017-09-22T06:45:32.143Z,110
2017-09-22T06:46:40.985Z,110
2017-09-22T06:47:49.825Z,110
2017-09-22T06:48:58.669Z,115
2017-09-22T06:50:07.845Z,115
2017-09-22T06:51:16.787Z,115
2017-09-22T06:52:25.630Z,120
2017-09-22T06:53:34.471Z,130
2017-09-22T06:54:43.315Z,140
2017-09-22T06:55:52.158Z,145
2017-09-22T06:57:01.050Z,145
2017-09-22T06:58:09.894Z,150
2017-09-22T06:59:18.734Z,150
2017-09-22T07:00:27.577Z,150
2017-09-22T07:01:36.420Z,150
2017-09-22T07:02:45.360Z,155
2017-09-22T07:03:54.201Z,155
2017-09-22T07:05:03.046Z,160
2017-09-22T07:06:11.899Z,165
2017-09-22T07:07:20.738Z,170
2017-09-22T07:08:29.732Z,175
2017-09-22T07:09:38.576Z,175
2017-09-22T07:10:47.418Z,175
2017-09-22T07:11:56.260Z,175
2017-09-22T07:13:05.446Z,170
2017-09-22T07:14:14.338Z,170
2017-09-22T07:15:23.184Z,175
2017-09-22T07:16:32.027Z,175
2017-09-22T07:17:40.868Z,180
2017-09-22T07:18:49.712Z,180
2017-09-22T07:19:58.856Z,185
2017-09-22T07:21:07.702Z,185
2017-09-22T07:22:16.543Z,190
2017-09-22T07:23:25.389Z,190
2017-09-22T07:24:34.231Z,190
2017-09-22T07:25:43.375Z,185
2017-09-22T07:26:52.221Z,185
2017-09-22T07:28:01.065Z,190
2017-09-22T07:29:09.909Z,195
2017-09-22T07:30:18.751Z,195
2017-09-22T07:31:27.645Z,205
2017-09-22T07:32:36.488Z,210
2017-09-22T07:33:45.333Z,210
2017-09-22T07:34:54.174Z,215
2017-09-22T07:36:03.017Z,225
2017-09-22T07:37:12.082Z,220
2017-09-22T07:38:20.901Z,220
2017-09-22T07:39:29.741Z,225
2017-09-22T07:40:38.586Z,225
2017-09-22T07:41:47.428Z,225
2017-09-22T07:42:56.423Z,225
2017-09-22T07:44:05.266Z,220
2017-09-22T07:45:14.111Z,220
2017-09-22T07:46:22.955Z,225
2017-09-22T07:47:31.799Z,225
2017-09-22T07:48:40.795Z,230
2017-09-22T07:49:49.639Z,235
2017-09-22T07:50:58.483Z,240
2017-09-22T07:52:07.330Z,245
2017-09-22T07:53:16.175Z,250
2017-09-22T07:54:25.221Z,250
2017-09-22T07:55:34.064Z,255
2017-09-22T07:56:42.907Z,255
2017-09-22T07:57:51.753Z,265
2017-09-22T07:59:00.595Z,265
2017-09-22T08:00:09.543Z,270
2017-09-22T08:01:18.388Z,275
2017-09-22T08:02:27.232Z,280
2017-09-22T08:03:36.412Z,280
2017-09-22T08:04:45.257Z,285
2017-09-22T08:05:54.200Z,285
2017-09-22T08:07:03.045Z,290
2017-09-22T08:08:11.889Z,300
2017-09-22T08:09:20.734Z,310
2017-09-22T08:10:29.574Z,320
2017-09-22T08:11:38.469Z,320
2017-09-22T08:12:47.313Z,325
2017-09-22T08:13:56.158Z,325
2017-09-22T08:15:05.336Z,330
2017-09-22T08:16:14.178Z,330
2017-09-22T08:17:23.124Z,330
2017-09-22T08:18:31.968Z,330
2017-09-22T08:19:40.814Z,330
2017-09-22T08:20:49.661Z,330
2017-09-22T08:21:58.507Z,330
2017-09-22T08:23:07.732Z,330
2017-09-22T08:24:16.576Z,335
2017-09-22T08:25:25.422Z,340
2017-09-22T08:26:34.266Z,340
2017-09-22T08:27:43.110Z,330
2017-09-22T08:28:52.254Z,330
2017-09-22T08:30:01.097Z,320
2017-09-22T08:31:09.941Z,315
2017-09-22T08:32:18.787Z,310
2017-09-22T08:33:27.631Z,305
2017-09-22T08:34:36.729Z,300
2017-09-22T08:35:45.575Z,300
2017-09-22T08:36:54.768Z,300
2017-09-22T08:38:03.617Z,300
2017-09-22T08:39:12.456Z,300
2017-09-22T08:40:21.499Z,300
2017-09-22T08:41:30.347Z,305
2017-09-22T08:42:39.193Z,305
2017-09-22T08:43:48.235Z,310
2017-09-22T08:44:57.083Z,315
2017-09-22T08:46:06.079Z,320
2017-09-22T08:47:14.924Z,325
2017-09-22T08:48:23.773Z,330
2017-09-22T08:49:32.618Z,335
2017-09-22T08:50:41.466Z,340
2017-09-22T08:51:50.359Z,345
2017-09-22T08:52:59.207Z,355
2017-09-22T08:54:08.049Z,360
2017-09-22T08:55:16.894Z,365
2017-09-22T08:56:25.742Z,375
2017-09-22T08:57:35.027Z,390
2017-09-22T08:58:43.876Z,395
2017-09-22T08:59:52.722Z,400
2017-09-22T09:01:01.568Z,405
2017-09-22T09:02:10.747Z,405
2017-09-22T09:03:19.593Z,395
2017-09-22T09:04:28.442Z,400
2017-09-22T09:05:37.287Z,405
2017-09-22T09:06:46.135Z,425
2017-09-22T09:07:54.989Z,430
2017-09-22T09:09:03.876Z,435
2017-09-22T09:10:12.724Z,440
2017-09-22T09:11:21.568Z,440
2017-09-22T09:12:30.414Z,445
2017-09-22T09:13:39.260Z,455
2017-09-22T09:14:48.307Z,450
2017-09-22T09:15:57.151Z,440
2017-09-22T09:17:06.001Z,445
2017-09-22T09:18:14.850Z,440
2017-09-22T09:19:23.698Z,435
2017-09-22T09:20:32.694Z,435
2017-09-22T09:21:41.545Z,435
2017-09-22T09:22:50.397Z,435
2017-09-22T09:23:59.261Z,435
2017-09-22T09:25:08.089Z,430
2017-09-22T09:26:17.040Z,425
2017-09-22T09:27:25.889Z,425
2017-09-22T09:28:34.736Z,425
2017-09-22T09:29:43.584Z,425
2017-09-22T09:30:52.759Z,425
2017-09-22T09:32:01.807Z,420
2017-09-22T09:33:10.652Z,420
2017-09-22T09:34:19.502Z,420
2017-09-22T09:35:28.346Z,420
2017-09-22T09:36:37.191Z,420
2017-09-22T09:37:46.191Z,420
2017-09-22T09:38:55.038Z,420
2017-09-22T09:40:03.883Z,415
2017-09-22T09:41:12.730Z,415
2017-09-22T09:42:21.578Z,420
2017-09-22T09:43:30.726Z,420
2017-09-22T09:44:39.577Z,425
2017-09-22T09:45:48.426Z,430
2017-09-22T09:46:57.272Z,430
2017-09-22T09:48:06.119Z,435
2017-09-22T09:49:15.068Z,435
2017-09-22T09:50:23.913Z,435
2017-09-22T09:51:32.760Z,435
2017-09-22T09:52:41.607Z,435
2017-09-22T09:53:50.455Z,440
2017-09-22T09:54:59.601Z,440
2017-09-22T09:56:08.446Z,445
2017-09-22T09:57:17.297Z,445
2017-09-22T09:58:26.889Z,450
2017-09-22T09:59:36.845Z,455
2017-09-22T10:00:47.825Z,460
2017-09-22T10:01:58.121Z,465
2017-09-22T10:03:09.215Z,465
2017-09-22T10:04:19.715Z,470
2017-09-22T10:05:30.200Z,475
2017-09-22T10:06:40.345Z,475
2017-09-22T10:07:51.478Z,475
2017-09-22T10:09:02.321Z,480
2017-09-22T10:10:12.971Z,475
2017-09-22T10:11:24.045Z,475
2017-09-22T10:12:34.897Z,480
2017-09-22T10:13:45.382Z,475
2017-09-22T10:14:56.242Z,475
2017-09-22T10:16:05.812Z,475
2017-09-22T10:17:47.196Z,480
2017-09-22T10:18:56.049Z,485
2017-09-22T10:20:04.898Z,485
2017-09-22T10:21:13.749Z,485
2017-09-22T10:22:22.601Z,485
2017-09-22T10:23:31.600Z,485
2017-09-22T10:24:40.449Z,490
2017-09-22T10:25:49.632Z,500
2017-09-22T10:26:58.493Z,510
2017-09-22T10:28:07.340Z,520
2017-09-22T10:29:16.236Z,540
2017-09-22T10:30:25.083Z,555
2017-09-22T10:31:33.931Z,565
2017-09-22T10:32:42.777Z,570
2017-09-22T10:33:51.628Z,575
2017-09-22T10:35:00.573Z,580
2017-09-22T10:36:09.756Z,580
2017-09-22T10:37:18.607Z,585
2017-09-22T10:38:27.790Z,590
2017-09-22T10:39:36.637Z,590
2017-09-22T10:40:45.868Z,595
2017-09-22T10:41:54.717Z,595
2017-09-22T10:43:03.564Z,600
2017-09-22T10:44:12.411Z,605
2017-09-22T10:45:21.261Z,600
2017-09-22T10:46:30.158Z,600
2017-09-22T10:47:39.007Z,600
2017-09-22T10:48:47.855Z,595
2017-09-22T10:49:56.702Z,590
2017-09-22T10:51:05.552Z,585
2017-09-22T10:52:14.603Z,585
2017-09-22T10:53:23.453Z,580
2017-09-22T10:54:32.301Z,580
2017-09-22T10:55:41.151Z,580
2017-09-22T10:56:50.003Z,575
2017-09-22T10:57:58.903Z,575
2017-09-22T10:59:07.753Z,570
2017-09-22T11:00:16.602Z,570
2017-09-22T11:01:25.452Z,575
2017-09-22T11:02:34.300Z,575
2017-09-22T11:03:43.248Z,575
2017-09-22T11:04:52.096Z,575
2017-09-22T11:06:00.946Z,570
2017-09-22T11:07:09.796Z,565
2017-09-22T11:08:18.645Z,560
2017-09-22T11:09:27.648Z,555
2017-09-22T11:10:36.491Z,550
2017-09-22T11:11:45.341Z,545
2017-09-22T11:12:54.193Z,540
2017-09-22T11:14:03.040Z,545
2017-09-22T11:15:12.040Z,545
2017-09-22T11:16:20.887Z,550
2017-09-22T11:17:29.736Z,550
2017-09-22T11:18:38.585Z,550
2017-09-22T11:19:47.436Z,555
2017-09-22T11:20:56.332Z,560
2017-09-22T11:22:05.181Z,560
2017-09-22T11:23:14.030Z,560
2017-09-22T11:24:22.879Z,565
2017-09-22T11:25:31.727Z,560
2017-09-22T11:26:40.728Z,565
2017-09-22T11:27:49.578Z,565
2017-09-22T11:28:58.426Z,550
2017-09-22T11:30:07.276Z,555
2017-09-22T11:31:16.128Z,560
2017-09-22T11:32:25.028Z,575
2017-09-22T11:33:33.879Z,590
2017-09-22T11:34:42.728Z,600
2017-09-22T11:35:51.576Z,610
2017-09-22T11:37:00.425Z,615
2017-09-22T11:38:09.481Z,630
2017-09-22T11:39:18.325Z,630
2017-09-22T11:40:27.172Z,635
2017-09-22T11:41:36.020Z,635
2017-09-22T11:42:44.870Z,625
2017-09-22T11:43:54.370Z,605
2017-09-22T11:45:03.217Z,595
2017-09-22T11:46:12.066Z,600
2017-09-22T11:47:21.253Z,605
2017-09-22T11:48:30.104Z,620
2017-09-22T11:49:39.207Z,625
2017-09-22T11:50:48.388Z,660
2017-09-22T11:51:57.240Z,675
2017-09-22T11:53:06.087Z,630
2017-09-22T11:54:14.937Z,705
2017-09-22T11:55:23.837Z,695
2017-09-22T11:56:32.689Z,885
2017-09-22T11:57:41.551Z,725
2017-09-22T11:58:50.401Z,580
2017-09-22T11:59:59.263Z,585
2017-09-22T12:01:08.117Z,570
2017-09-22T12:02:16.969Z,595
2017-09-22T12:03:25.825Z,660
2017-09-22T12:04:34.676Z,680
2017-09-22T12:05:43.529Z,685
2017-09-22T12:06:52.381Z,595
2017-09-22T12:08:01.234Z,710
2017-09-22T12:09:10.085Z,565
2017-09-22T12:10:18.934Z,565
2017-09-22T12:11:27.783Z,550
2017-09-22T12:12:36.645Z,490
2017-09-22T12:13:45.847Z,510
2017-09-22T12:14:54.696Z,530
2017-09-22T12:16:03.545Z,545
2017-09-22T12:17:12.724Z,570
2017-09-22T12:18:21.577Z,660
2017-09-22T12:19:30.429Z,640
2017-09-22T12:20:39.282Z,620
2017-09-22T12:21:48.246Z,600
2017-09-22T12:22:57.106Z,595
2017-09-22T12:24:06.304Z,615
2017-09-22T12:25:15.166Z,605
2017-09-22T12:26:24.031Z,625
2017-09-22T12:27:33.031Z,600
2017-09-22T12:28:41.881Z,575
2017-09-22T12:29:50.729Z,570
2017-09-22T12:30:59.614Z,565
2017-09-22T12:32:08.502Z,570
2017-09-22T12:33:17.321Z,605
2017-09-22T12:34:26.168Z,590
2017-09-22T12:35:35.021Z,630
2017-09-22T12:36:43.870Z,635
2017-09-22T12:37:52.730Z,630
2017-09-22T12:39:01.731Z,590
2017-09-22T12:40:10.581Z,600
2017-09-22T12:41:19.766Z,565
2017-09-22T12:42:28.617Z,530
2017-09-22T12:43:37.469Z,510
2017-09-22T12:44:46.368Z,510
2017-09-22T12:45:55.375Z,520
2017-09-22T12:47:04.244Z,525
2017-09-22T12:48:13.098Z,515
2017-09-22T12:49:21.949Z,495
2017-09-22T12:50:31.050Z,475
2017-09-22T12:51:39.909Z,465
2017-09-22T12:52:49.095Z,465
2017-09-22T12:53:57.945Z,460
2017-09-22T12:55:06.796Z,460
2017-09-22T12:56:15.749Z,465
2017-09-22T12:57:24.600Z,455
2017-09-22T12:58:33.452Z,445
2017-09-22T12:59:42.303Z,435
2017-09-22T13:00:51.168Z,430
2017-09-22T13:02:00.126Z,420
2017-09-22T13:03:08.977Z,415
2017-09-22T13:04:17.833Z,410
2017-09-22T13:05:26.685Z,410
2017-09-22T13:06:35.537Z,410
2017-09-22T13:07:45.272Z,415
2017-09-22T13:08:54.124Z,415
2017-09-22T13:10:02.977Z,415
2017-09-22T13:11:11.825Z,410
2017-09-22T13:12:20.673Z,400
2017-09-22T13:13:29.954Z,400
2017-09-22T13:14:38.804Z,400
2017-09-22T13:15:47.657Z,400
2017-09-22T13:16:56.547Z,415
2017-09-22T13:18:05.778Z,430
2017-09-22T13:19:14.837Z,440
2017-09-22T13:20:23.682Z,445
2017-09-22T13:21:32.534Z,440
2017-09-22T13:22:41.383Z,425
2017-09-22T13:23:50.235Z,410
2017-09-22T13:24:59.219Z,390
2017-09-22T13:26:08.070Z,375
2017-09-22T13:27:16.958Z,365
2017-09-22T13:28:26.147Z,360
2017-09-22T13:29:34.998Z,355
2017-09-22T13:30:43.901Z,355
2017-09-22T13:31:53.221Z,350
2017-09-22T13:33:02.093Z,350
2017-09-22T13:34:10.944Z,355
2017-09-22T13:35:19.793Z,355
2017-09-22T13:36:28.898Z,365
2017-09-22T13:37:37.750Z,370
2017-09-22T13:38:46.598Z,370
2017-09-22T13:39:55.449Z,375
2017-09-22T13:41:04.300Z,385
2017-09-22T13:42:13.400Z,380
2017-09-22T13:43:22.248Z,380
2017-09-22T13:44:31.432Z,375
2017-09-22T13:45:40.282Z,370
2017-09-22T13:46:49.132Z,365
2017-09-22T13:47:58.149Z,360
2017-09-22T13:49:07.005Z,360
2017-09-22T13:50:15.857Z,355
2017-09-22T13:51:24.713Z,355
2017-09-22T13:52:33.571Z,355
2017-09-22T13:53:42.590Z,350
2017-09-22T13:54:51.471Z,350
2017-09-22T13:56:00.330Z,350
2017-09-22T13:57:09.187Z,345
2017-09-22T13:58:18.033Z,340
2017-09-22T13:59:27.131Z,330
2017-09-22T14:00:36.322Z,325
2017-09-22T14:01:45.197Z,310
2017-09-22T14:02:54.081Z,305
2017-09-22T14:04:02.933Z,295
2017-09-22T14:05:12.188Z,290
2017-09-22T14:06:21.047Z,290
2017-09-22T14:07:29.898Z,290
2017-09-22T14:08:38.747Z,285
2017-09-22T14:09:47.594Z,280
2017-09-22T14:10:56.447Z,270
2017-09-22T14:12:05.294Z,270
2017-09-22T14:13:14.141Z,265
2017-09-22T14:14:23.001Z,265
2017-09-22T14:15:31.850Z,265
2017-09-22T14:16:40.897Z,260
2017-09-22T14:17:49.746Z,250
2017-09-22T14:18:58.597Z,245
2017-09-22T14:20:07.461Z,240
2017-09-22T14:21:16.308Z,230
2017-09-22T14:22:25.407Z,230
2017-09-22T14:23:34.251Z,240
2017-09-22T14:24:43.099Z,240
2017-09-22T14:25:51.946Z,230
2017-09-22T14:27:00.792Z,230
2017-09-22T14:28:09.839Z,230
2017-09-22T14:29:18.692Z,230
2017-09-22T14:30:27.538Z,230
2017-09-22T14:31:36.386Z,235
2017-09-22T14:32:45.238Z,240
2017-09-22T14:33:54.391Z,240
2017-09-22T14:35:03.243Z,240
2017-09-22T14:36:12.090Z,240
2017-09-22T14:37:20.942Z,240
2017-09-22T14:38:30.125Z,240
2017-09-22T14:39:39.125Z,240
2017-09-22T14:40:47.972Z,245
2017-09-22T14:41:56.819Z,255
2017-09-22T14:43:05.665Z,260
2017-09-22T14:44:14.512Z,270
2017-09-22T14:45:23.360Z,280
2017-09-22T14:46:32.206Z,285
2017-09-22T14:47:41.056Z,295
2017-09-22T14:48:49.901Z,300
2017-09-22T14:49:58.747Z,300
2017-09-22T14:51:07.695Z,310
2017-09-22T14:52:16.541Z,300
2017-09-22T14:53:25.389Z,285
2017-09-22T14:54:34.237Z,280
2017-09-22T14:55:43.082Z,270
2017-09-22T14:56:52.182Z,265
2017-09-22T14:58:01.029Z,260
2017-09-22T14:59:10.208Z,255
2017-09-22T15:00:19.057Z,255
2017-09-22T15:01:27.904Z,260
2017-09-22T15:02:36.751Z,265
2017-09-22T15:03:45.599Z,270
2017-09-22T15:04:54.446Z,275
2017-09-22T15:06:03.296Z,285
2017-09-22T15:07:12.145Z,290
2017-09-22T15:08:21.290Z,295
2017-09-22T15:09:30.135Z,300
2017-09-22T15:10:38.982Z,305
2017-09-22T15:11:47.831Z,310
2017-09-22T15:12:56.681Z,315
2017-09-22T15:14:05.530Z,315
2017-09-22T15:15:14.378Z,315
2017-09-22T15:16:23.225Z,315
2017-09-22T15:17:32.069Z,315
2017-09-22T15:18:40.919Z,315
2017-09-22T15:19:49.878Z,315
2017-09-22T15:20:58.722Z,305
2017-09-22T15:22:07.571Z,295
2017-09-22T15:23:16.420Z,285
2017-09-22T15:24:25.267Z,280
2017-09-22T15:25:34.215Z,275
2017-09-22T15:26:43.062Z,275
2017-09-22T15:27:51.910Z,270
2017-09-22T15:29:00.758Z,270
2017-09-22T15:30:09.606Z,275
2017-09-22T15:31:18.454Z,275
2017-09-22T15:32:27.302Z,280
2017-09-22T15:33:36.151Z,275
2017-09-22T15:34:44.995Z,270
2017-09-22T15:35:53.845Z,265
2017-09-22T15:37:02.992Z,255
2017-09-22T15:38:11.838Z,245
2017-09-22T15:39:20.687Z,235
2017-09-22T15:40:29.535Z,225
2017-09-22T15:41:38.385Z,210
2017-09-22T15:42:47.330Z,200
2017-09-22T15:43:56.177Z,185
2017-09-22T15:45:05.025Z,175
2017-09-22T15:46:13.872Z,160
2017-09-22T15:47:22.723Z,145
2017-09-22T15:48:31.621Z,135
2017-09-22T15:49:40.469Z,125
2017-09-22T15:50:49.313Z,115
2017-09-22T15:51:58.160Z,110
2017-09-22T15:53:07.009Z,105
2017-09-22T15:54:15.954Z,100
2017-09-22T15:55:24.799Z,100
2017-09-22T15:56:33.645Z,100
2017-09-22T15:57:42.494Z,100
2017-09-22T15:58:51.345Z,100
2017-09-22T16:00:00.241Z,100
2017-09-22T16:01:09.087Z,95
2017-09-22T16:02:17.935Z,95
2017-09-22T16:03:26.784Z,95
2017-09-22T16:04:35.632Z,100
2017-09-22T16:05:44.528Z,100
2017-09-22T16:06:53.374Z,100
2017-09-22T16:08:02.219Z,105
2017-09-22T16:09:11.068Z,110
2017-09-22T16:10:19.913Z,115
2017-09-22T16:11:28.859Z,120
2017-09-22T16:12:37.704Z,125
2017-09-22T16:13:46.549Z,125